Time,TemperatureF,DewpointF,PressureIn,WindDirection,WindDirectionDegrees,WindSpeedMPH,WindSpeedGustMPH,Humidity,HourlyPrecipIn,Conditions,Clouds,dailyrainin,SoftwareType,DateUTC
2013-03-30 00:00:00,44.9,41.6,30.22,SSW,197,1.0,3.0,88,0.00,,---,0.00,VWS V14.01,2013-03-30 04:00:00,
2013-03-30 00:05:00,44.8,41.5,30.22,WSW,252,2.0,2.0,88,0.00,,---,0.00,VWS V14.01,2013-03-30 04:05:00,
2013-03-30 00:10:00,44.8,41.5,30.22,South,190,1.0,3.0,88,0.00,,---,0.00,VWS V14.01,2013-03-30 04:10:00,
2013-03-30 00:15:00,44.8,41.2,30.22,WSW,257,2.0,2.0,87,0.00,,---,0.00,VWS V14.01,2013-03-30 04:15:00,
2013-03-30 00:20:00,44.8,41.5,30.22,West,259,1.0,1.0,88,0.00,,---,0.00,VWS V14.01,2013-03-30 04:20:00,
2013-03-30 00:25:00,44.7,41.4,30.22,WSW,255,1.0,1.0,88,0.00,,---,0.00,VWS V14.01,2013-03-30 04:25:00,
2013-03-30 00:30:00,44.5,41.5,30.22,WSW,239,2.0,4.0,89,0.00,,---,0.00,VWS V14.01,2013-03-30 04:30:00,
2013-03-30 00:35:00,44.4,41.4,30.22,WSW,246,2.0,2.0,89,0.00,,---,0.00,VWS V14.01,2013-03-30 04:35:00,
2013-03-30 00:40:00,44.3,41.6,30.22,West,263,4.0,4.0,90,0.00,,---,0.00,VWS V14.01,2013-03-30 04:40:00,
2013-03-30 00:45:00,44.3,41.6,30.22,SW,221,2.0,5.0,90,0.00,,---,0.00,VWS V14.01,2013-03-30 04:45:00,
2013-03-30 00:50:00,44.2,41.5,30.21,WSW,243,1.0,3.0,90,0.00,,---,0.00,VWS V14.01,2013-03-30 04:50:00,
2013-03-30 00:55:00,44.2,41.5,30.21,WSW,257,4.0,5.0,90,0.00,,---,0.00,VWS V14.01,2013-03-30 04:55:00,
2013-03-30 01:00:00,44.3,41.6,30.21,SW,235,1.0,2.0,90,0.00,,---,0.00,VWS V14.01,2013-03-30 05:00:00,
2013-03-30 01:05:00,44.3,41.6,30.21,WSW,244,4.0,4.0,90,0.00,,---,0.00,VWS V14.01,2013-03-30 05:05:00,
2013-03-30 01:10:00,44.3,41.6,30.21,WSW,245,2.0,3.0,90,0.00,,---,0.00,VWS V14.01,2013-03-30 05:10:00,
2013-03-30 01:15:00,44.3,41.6,30.21,WSW,242,5.0,5.0,90,0.00,,---,0.00,VWS V14.01,2013-03-30 05:15:00,
2013-03-30 01:20:00,44.3,41.6,30.21,South,170,2.0,3.0,90,0.00,,---,0.00,VWS V14.01,2013-03-30 05:20:00,
2013-03-30 01:25:00,44.9,41.6,30.22,ENE,78,0.0,3.0,88,0.00,,---,0.00,VWS V14.01,2013-03-30 05:25:00,
2013-03-30 01:26:00,44.3,41.6,30.21,SSE,166,4.0,4.0,90,0.00,,---,0.00,VWS V14.01,2013-03-30 05:26:00,
2013-03-30 01:30:00,44.9,41.6,30.22,WSW,253,2.0,4.0,88,0.00,,---,0.00,VWS V14.01,2013-03-30 05:30:00,
2013-03-30 01:31:00,44.3,41.6,30.21,WSW,242,5.0,6.0,90,0.00,,---,0.00,VWS V14.01,2013-03-30 05:31:00,
2013-03-30 01:35:00,44.9,41.6,30.22,SW,227,5.0,6.0,88,0.00,,---,0.00,VWS V14.01,2013-03-30 05:35:00,
2013-03-30 01:36:00,44.1,41.7,30.21,SW,224,3.0,4.0,91,0.00,,---,0.00,VWS V14.01,2013-03-30 05:36:00,
2013-03-30 01:40:00,44.9,41.6,30.22,SW,228,1.0,5.0,88,0.00,,---,0.00,VWS V14.01,2013-03-30 05:40:00,
2013-03-30 01:41:00,43.9,41.5,30.20,WNW,293,1.0,4.0,91,0.00,,---,0.00,VWS V14.01,2013-03-30 05:41:00,
2013-03-30 01:45:00,45.0,41.7,30.22,NW,322,0.0,4.0,88,0.00,,---,0.00,VWS V14.01,2013-03-30 05:45:00,
2013-03-30 01:47:00,43.8,41.6,30.20,South,191,1.0,5.0,92,0.00,,---,0.00,VWS V14.01,2013-03-30 05:47:00,
2013-03-30 01:50:00,44.9,41.6,30.22,SW,221,4.0,4.0,88,0.00,,---,0.00,VWS V14.01,2013-03-30 05:50:00,
2013-03-30 01:52:00,43.7,41.5,30.20,SW,236,0.0,3.0,92,0.00,,---,0.00,VWS V14.01,2013-03-30 05:52:00,
2013-03-30 01:55:00,44.9,41.6,30.22,West,274,1.0,4.0,88,0.00,,---,0.00,VWS V14.01,2013-03-30 05:55:00,
2013-03-30 01:57:00,43.6,41.7,30.20,West,260,2.0,2.0,93,0.00,,---,0.00,VWS V14.01,2013-03-30 05:57:00,
2013-03-30 02:00:00,44.9,41.6,30.22,WSW,242,2.0,3.0,88,0.00,,---,0.00,VWS V14.01,2013-03-30 06:00:00,
2013-03-30 02:02:00,43.6,41.7,30.20,SW,225,2.0,5.0,93,0.00,,---,0.00,VWS V14.01,2013-03-30 06:02:00,
2013-03-30 02:05:00,44.8,41.5,30.22,WSW,255,1.0,6.0,88,0.00,,---,0.00,VWS V14.01,2013-03-30 06:05:00,
2013-03-30 02:07:00,43.5,41.6,30.21,South,176,2.0,3.0,93,0.00,,---,0.00,VWS V14.01,2013-03-30 06:07:00,
2013-03-30 02:10:00,44.8,41.5,30.22,ESE,116,2.0,3.0,88,0.00,,---,0.00,VWS V14.01,2013-03-30 06:10:00,
2013-03-30 02:12:00,43.5,41.6,30.20,WNW,287,1.0,5.0,93,0.00,,---,0.00,VWS V14.01,2013-03-30 06:12:00,
2013-03-30 02:15:00,44.8,41.2,30.22,SSW,200,0.0,3.0,87,0.00,,---,0.00,VWS V14.01,2013-03-30 06:15:00,
2013-03-30 02:17:00,43.5,41.9,30.21,SSW,207,0.0,5.0,94,0.00,,---,0.00,VWS V14.01,2013-03-30 06:17:00,
2013-03-30 02:20:00,44.8,41.5,30.22,West,259,1.0,5.0,88,0.00,,---,0.00,VWS V14.01,2013-03-30 06:20:00,
2013-03-30 02:22:00,43.4,41.8,30.21,SW,231,3.0,5.0,94,0.00,,---,0.00,VWS V14.01,2013-03-30 06:22:00,
2013-03-30 02:25:00,44.7,41.4,30.22,WSW,255,0.0,6.0,88,0.00,,---,0.00,VWS V14.01,2013-03-30 06:25:00,
2013-03-30 02:27:00,43.4,41.8,30.21,WSW,242,0.0,2.0,94,0.00,,---,0.00,VWS V14.01,2013-03-30 06:27:00,
2013-03-30 02:30:00,44.6,41.6,30.22,South,186,2.0,4.0,89,0.00,,---,0.00,VWS V14.01,2013-03-30 06:30:00,
2013-03-30 02:32:00,43.3,41.7,30.21,SW,217,0.0,0.0,94,0.00,,---,0.00,VWS V14.01,2013-03-30 06:32:00,
2013-03-30 02:35:00,44.4,41.4,30.22,SW,232,2.0,4.0,89,0.00,,---,0.00,VWS V14.01,2013-03-30 06:35:00,
2013-03-30 02:37:00,43.3,41.7,30.21,West,269,1.0,2.0,94,0.00,,---,0.00,VWS V14.01,2013-03-30 06:37:00,
2013-03-30 02:40:00,44.3,41.6,30.22,WNW,297,1.0,3.0,90,0.00,,---,0.00,VWS V14.01,2013-03-30 06:40:00,
2013-03-30 02:42:00,43.3,42.0,30.20,NW,323,1.0,1.0,95,0.00,,---,0.00,VWS V14.01,2013-03-30 06:42:00,
2013-03-30 02:45:00,44.3,41.6,30.22,SW,231,4.0,5.0,90,0.00,,---,0.00,VWS V14.01,2013-03-30 06:45:00,
2013-03-30 02:47:00,43.3,42.0,30.20,NW,304,1.0,1.0,95,0.00,,---,0.00,VWS V14.01,2013-03-30 06:47:00,
2013-03-30 02:50:00,44.3,41.6,30.21,West,274,1.0,5.0,90,0.00,,---,0.00,VWS V14.01,2013-03-30 06:50:00,
2013-03-30 02:52:00,43.3,42.0,30.20,NW,304,0.0,1.0,95,0.00,,---,0.00,VWS V14.01,2013-03-30 06:52:00,
2013-03-30 02:55:00,44.3,41.6,30.21,WSW,250,3.0,4.0,90,0.00,,---,0.00,VWS V14.01,2013-03-30 06:55:00,
2013-03-30 02:57:00,43.2,41.9,30.20,WSW,248,1.0,3.0,95,0.00,,---,0.00,VWS V14.01,2013-03-30 06:57:00,
2013-03-30 03:00:00,44.3,41.6,30.21,SW,218,2.0,5.0,90,0.00,,---,0.00,VWS V14.01,2013-03-30 07:00:00,
2013-03-30 03:02:00,43.2,41.9,30.20,WNW,287,0.0,1.0,95,0.00,,---,0.00,VWS V14.01,2013-03-30 07:02:00,
2013-03-30 03:05:00,44.2,41.5,30.21,SSE,165,2.0,5.0,90,0.00,,---,0.00,VWS V14.01,2013-03-30 07:05:00,
2013-03-30 03:07:00,43.2,41.9,30.19,WSW,240,0.0,1.0,95,0.00,,---,0.00,VWS V14.01,2013-03-30 07:07:00,
2013-03-30 03:10:00,44.3,41.6,30.20,West,275,2.0,6.0,90,0.00,,---,0.00,VWS V14.01,2013-03-30 07:10:00,
2013-03-30 03:12:00,43.2,41.9,30.19,WNW,290,0.0,1.0,95,0.00,,---,0.00,VWS V14.01,2013-03-30 07:12:00,
2013-03-30 03:15:00,44.2,41.5,30.21,WSW,253,5.0,5.0,90,0.00,,---,0.00,VWS V14.01,2013-03-30 07:15:00,
2013-03-30 03:17:00,43.1,41.8,30.19,WSW,249,0.0,2.0,95,0.00,,---,0.00,VWS V14.01,2013-03-30 07:17:00,
2013-03-30 03:20:00,44.3,41.6,30.21,WSW,245,1.0,7.0,90,0.00,,---,0.00,VWS V14.01,2013-03-30 07:20:00,
2013-03-30 03:22:00,43.1,41.8,30.19,WSW,245,0.0,3.0,95,0.00,,---,0.00,VWS V14.01,2013-03-30 07:22:00,
2013-03-30 03:25:00,44.3,41.6,30.21,WSW,255,1.0,6.0,90,0.00,,---,0.00,VWS V14.01,2013-03-30 07:25:00,
2013-03-30 03:27:00,43.1,41.8,30.19,South,176,1.0,2.0,95,0.00,,---,0.00,VWS V14.01,2013-03-30 07:27:00,
2013-03-30 03:30:00,44.3,41.6,30.21,NW,315,1.0,5.0,90,0.00,,---,0.00,VWS V14.01,2013-03-30 07:30:00,
2013-03-30 03:32:00,43.0,41.7,30.19,SW,231,2.0,2.0,95,0.00,,---,0.00,VWS V14.01,2013-03-30 07:32:00,
2013-03-30 03:35:00,44.2,41.5,30.21,WSW,255,2.0,6.0,90,0.00,,---,0.00,VWS V14.01,2013-03-30 07:35:00,
2013-03-30 03:38:00,43.0,41.7,30.19,SE,146,0.0,1.0,95,0.00,,---,0.00,VWS V14.01,2013-03-30 07:38:00,
2013-03-30 03:40:00,44.0,41.5,30.21,SW,214,3.0,5.0,91,0.00,,---,0.00,VWS V14.01,2013-03-30 07:40:00,
2013-03-30 03:43:00,43.0,41.7,30.19,ESE,117,2.0,3.0,95,0.00,,---,0.00,VWS V14.01,2013-03-30 07:43:00,
2013-03-30 03:45:00,43.8,41.6,30.21,West,266,1.0,4.0,92,0.00,,---,0.00,VWS V14.01,2013-03-30 07:45:00,
2013-03-30 03:48:00,43.0,41.9,30.19,WNW,291,0.0,1.0,96,0.00,,---,0.00,VWS V14.01,2013-03-30 07:48:00,
2013-03-30 03:50:00,43.7,41.5,30.20,SSW,195,2.0,5.0,92,0.00,,---,0.00,VWS V14.01,2013-03-30 07:50:00,
2013-03-30 03:53:00,43.0,41.9,30.19,WNW,290,0.0,1.0,96,0.00,,---,0.00,VWS V14.01,2013-03-30 07:53:00,
2013-03-30 03:55:00,43.6,41.7,30.20,West,271,2.0,4.0,93,0.00,,---,0.00,VWS V14.01,2013-03-30 07:55:00,
2013-03-30 03:58:00,42.9,41.8,30.18,WNW,296,0.0,1.0,96,0.00,,---,0.00,VWS V14.01,2013-03-30 07:58:00,
2013-03-30 04:00:00,43.6,41.7,30.20,West,262,0.0,2.0,93,0.00,,---,0.00,VWS V14.01,2013-03-30 08:00:00,
2013-03-30 04:03:00,42.9,41.8,30.18,WNW,298,0.0,1.0,96,0.00,,---,0.00,VWS V14.01,2013-03-30 08:03:00,
2013-03-30 04:05:00,43.5,41.6,30.20,West,270,1.0,6.0,93,0.00,,---,0.00,VWS V14.01,2013-03-30 08:05:00,
2013-03-30 04:08:00,42.8,41.7,30.18,WNW,297,0.0,0.0,96,0.00,,---,0.00,VWS V14.01,2013-03-30 08:08:00,
2013-03-30 04:10:00,43.5,41.6,30.20,West,259,1.0,6.0,93,0.00,,---,0.00,VWS V14.01,2013-03-30 08:10:00,
2013-03-30 04:13:00,42.8,41.7,30.18,West,280,0.0,1.0,96,0.00,,---,0.00,VWS V14.01,2013-03-30 08:13:00,
2013-03-30 04:15:00,43.5,41.9,30.21,WSW,242,1.0,5.0,94,0.00,,---,0.00,VWS V14.01,2013-03-30 08:15:00,
2013-03-30 04:18:00,42.7,41.6,30.18,West,264,1.0,3.0,96,0.00,,---,0.00,VWS V14.01,2013-03-30 08:18:00,
2013-03-30 04:20:00,43.4,41.8,30.21,South,170,0.0,5.0,94,0.00,,---,0.00,VWS V14.01,2013-03-30 08:20:00,
2013-03-30 04:23:00,42.6,41.5,30.18,WSW,255,1.0,2.0,96,0.00,,---,0.00,VWS V14.01,2013-03-30 08:23:00,
2013-03-30 04:25:00,43.4,41.8,30.21,WSW,242,1.0,5.0,94,0.00,,---,0.00,VWS V14.01,2013-03-30 08:25:00,
2013-03-30 04:28:00,42.6,41.5,30.18,SW,235,2.0,7.0,96,0.00,,---,0.00,VWS V14.01,2013-03-30 08:28:00,
2013-03-30 04:30:00,43.3,41.7,30.21,SW,217,0.0,2.0,94,0.00,,---,0.00,VWS V14.01,2013-03-30 08:30:00,
2013-03-30 04:33:00,42.7,41.6,30.18,WSW,245,1.0,2.0,96,0.00,,---,0.00,VWS V14.01,2013-03-30 08:33:00,
2013-03-30 04:35:00,43.3,41.7,30.20,NW,305,1.0,2.0,94,0.00,,---,0.00,VWS V14.01,2013-03-30 08:35:00,
2013-03-30 04:38:00,42.6,41.5,30.18,WSW,253,1.0,1.0,96,0.00,,---,0.00,VWS V14.01,2013-03-30 08:38:00,
2013-03-30 04:40:00,43.3,41.7,30.20,West,267,0.0,2.0,94,0.00,,---,0.00,VWS V14.01,2013-03-30 08:40:00,
2013-03-30 04:43:00,42.7,41.6,30.18,West,259,2.0,2.0,96,0.00,,---,0.00,VWS V14.01,2013-03-30 08:43:00,
2013-03-30 04:45:00,43.3,42.0,30.20,NW,323,0.0,1.0,95,0.00,,---,0.00,VWS V14.01,2013-03-30 08:45:00,
2013-03-30 04:48:00,42.7,41.6,30.18,WSW,256,0.0,1.0,96,0.00,,---,0.00,VWS V14.01,2013-03-30 08:48:00,
2013-03-30 04:50:00,43.3,42.0,30.20,NW,304,0.0,1.0,95,0.00,,---,0.00,VWS V14.01,2013-03-30 08:50:00,
2013-03-30 04:53:00,42.7,41.6,30.18,WSW,253,1.0,4.0,96,0.00,,---,0.00,VWS V14.01,2013-03-30 08:53:00,
2013-03-30 04:55:00,43.3,42.0,30.20,WSW,257,2.0,3.0,95,0.00,,---,0.00,VWS V14.01,2013-03-30 08:55:00,
2013-03-30 04:58:00,42.8,41.7,30.18,WSW,256,0.0,3.0,96,0.00,,---,0.00,VWS V14.01,2013-03-30 08:58:00,
2013-03-30 05:00:00,43.2,41.9,30.20,WSW,253,0.0,3.0,95,0.00,,---,0.00,VWS V14.01,2013-03-30 09:00:00,
2013-03-30 05:03:00,42.9,41.8,30.17,NNW,335,1.0,3.0,96,0.00,,---,0.00,VWS V14.01,2013-03-30 09:03:00,
2013-03-30 05:05:00,43.2,41.9,30.20,SW,218,0.0,2.0,95,0.00,,---,0.00,VWS V14.01,2013-03-30 09:05:00,
2013-03-30 05:08:00,42.9,41.8,30.17,NW,319,0.0,1.0,96,0.00,,---,0.00,VWS V14.01,2013-03-30 09:08:00,
2013-03-30 05:10:00,43.2,41.9,30.19,WNW,291,0.0,1.0,95,0.00,,---,0.00,VWS V14.01,2013-03-30 09:10:00,
2013-03-30 05:13:00,42.8,41.7,30.17,NW,318,1.0,2.0,96,0.00,,---,0.00,VWS V14.01,2013-03-30 09:13:00,
2013-03-30 05:15:00,43.1,41.8,30.19,WNW,291,1.0,1.0,95,0.00,,---,0.00,VWS V14.01,2013-03-30 09:15:00,
2013-03-30 05:18:00,42.8,41.7,30.17,SW,224,0.0,2.0,96,0.00,,---,0.00,VWS V14.01,2013-03-30 09:18:00,
2013-03-30 05:20:00,43.1,41.8,30.19,WSW,257,1.0,3.0,95,0.00,,---,0.00,VWS V14.01,2013-03-30 09:20:00,
2013-03-30 05:23:00,42.7,41.6,30.17,SW,225,0.0,2.0,96,0.00,,---,0.00,VWS V14.01,2013-03-30 09:23:00,
2013-03-30 05:25:00,43.1,41.8,30.19,South,176,2.0,3.0,95,0.00,,---,0.00,VWS V14.01,2013-03-30 09:25:00,
2013-03-30 05:28:00,42.6,41.5,30.17,WNW,291,0.0,1.0,96,0.00,,---,0.00,VWS V14.01,2013-03-30 09:28:00,
2013-03-30 05:30:00,43.0,41.7,30.19,WNW,287,0.0,2.0,95,0.00,,---,0.00,VWS V14.01,2013-03-30 09:30:00,
2013-03-30 05:33:00,42.5,41.4,30.17,WNW,290,0.0,0.0,96,0.00,,---,0.00,VWS V14.01,2013-03-30 09:33:00,
2013-03-30 05:34:00,42.5,41.4,30.17,WNW,291,0.0,0.0,96,0.00,,---,0.00,VWS V14.01,2013-03-30 09:34:00,
2013-03-30 05:35:00,43.0,41.7,30.19,SSE,148,1.0,2.0,95,0.00,,---,0.00,VWS V14.01,2013-03-30 09:35:00,
2013-03-30 05:39:00,42.4,41.3,30.16,WNW,290,0.0,1.0,96,0.00,,---,0.00,VWS V14.01,2013-03-30 09:39:00,
2013-03-30 05:40:00,43.0,41.7,30.19,SE,146,0.0,1.0,95,0.00,,---,0.00,VWS V14.01,2013-03-30 09:40:00,
2013-03-30 05:44:00,42.3,41.2,30.16,WNW,290,0.0,1.0,96,0.00,,---,0.00,VWS V14.01,2013-03-30 09:44:00,
2013-03-30 05:45:00,43.0,41.9,30.19,WNW,291,0.0,3.0,96,0.00,,---,0.00,VWS V14.01,2013-03-30 09:45:00,
2013-03-30 05:49:00,42.3,41.2,30.16,WNW,291,1.0,1.0,96,0.00,,---,0.00,VWS V14.01,2013-03-30 09:49:00,
2013-03-30 05:50:00,43.0,41.9,30.18,WNW,290,0.0,1.0,96,0.00,,---,0.00,VWS V14.01,2013-03-30 09:50:00,
2013-03-30 05:54:00,42.3,41.2,30.16,WNW,291,0.0,1.0,96,0.00,,---,0.00,VWS V14.01,2013-03-30 09:54:00,
2013-03-30 05:55:00,43.0,41.7,30.19,WNW,290,0.0,1.0,95,0.00,,---,0.00,VWS V14.01,2013-03-30 09:55:00,
2013-03-30 05:59:00,42.3,41.2,30.16,WNW,293,0.0,1.0,96,0.00,,---,0.00,VWS V14.01,2013-03-30 09:59:00,
2013-03-30 06:00:00,42.9,41.6,30.18,WNW,297,0.0,1.0,95,0.00,,---,0.00,VWS V14.01,2013-03-30 10:00:00,
2013-03-30 06:04:00,42.3,41.2,30.17,WNW,292,0.0,1.0,96,0.00,,---,0.00,VWS V14.01,2013-03-30 10:04:00,
2013-03-30 06:05:00,42.9,41.8,30.18,WNW,297,0.0,1.0,96,0.00,,---,0.00,VWS V14.01,2013-03-30 10:05:00,
2013-03-30 06:09:00,42.3,41.2,30.17,WNW,292,0.0,1.0,96,0.00,,---,0.00,VWS V14.01,2013-03-30 10:09:00,
2013-03-30 06:10:00,42.8,41.7,30.18,WNW,297,0.0,1.0,96,0.00,,---,0.00,VWS V14.01,2013-03-30 10:10:00,
2013-03-30 06:14:00,42.2,41.1,30.17,West,280,0.0,2.0,96,0.00,,---,0.00,VWS V14.01,2013-03-30 10:14:00,
2013-03-30 06:15:00,42.7,41.6,30.18,West,278,1.0,1.0,96,0.00,,---,0.00,VWS V14.01,2013-03-30 10:15:00,
2013-03-30 06:19:00,42.0,40.9,30.17,West,280,1.0,1.0,96,0.00,,---,0.00,VWS V14.01,2013-03-30 10:19:00,
2013-03-30 06:20:00,42.7,41.6,30.18,West,262,1.0,3.0,96,0.00,,---,0.00,VWS V14.01,2013-03-30 10:20:00,
2013-03-30 06:24:00,41.8,40.8,30.17,West,280,0.0,1.0,96,0.00,,---,0.00,VWS V14.01,2013-03-30 10:24:00,
2013-03-30 06:25:00,42.6,41.5,30.18,West,276,2.0,3.0,96,0.00,,---,0.00,VWS V14.01,2013-03-30 10:25:00,
2013-03-30 06:29:00,41.7,40.7,30.17,SW,233,1.0,3.0,96,0.00,,---,0.00,VWS V14.01,2013-03-30 10:29:00,
2013-03-30 06:30:00,42.7,41.6,30.18,South,170,0.0,7.0,96,0.00,,---,0.00,VWS V14.01,2013-03-30 10:30:00,
2013-03-30 06:34:00,41.6,40.5,30.17,WSW,253,0.0,1.0,96,0.00,,---,0.00,VWS V14.01,2013-03-30 10:34:00,
2013-03-30 06:35:00,42.6,41.5,30.18,WSW,253,1.0,2.0,96,0.00,,---,0.00,VWS V14.01,2013-03-30 10:35:00,
2013-03-30 06:39:00,41.5,40.5,30.17,WNW,283,1.0,2.0,96,0.00,,---,0.00,VWS V14.01,2013-03-30 10:39:00,
2013-03-30 06:40:00,42.7,41.6,30.18,WSW,257,0.0,1.0,96,0.00,,---,0.00,VWS V14.01,2013-03-30 10:40:00,
2013-03-30 06:44:00,41.5,40.7,30.17,WNW,283,0.0,2.0,97,0.00,,---,0.00,VWS V14.01,2013-03-30 10:44:00,
2013-03-30 06:45:00,42.7,41.6,30.18,WSW,256,0.0,2.0,96,0.00,,---,0.00,VWS V14.01,2013-03-30 10:45:00,
2013-03-30 06:49:00,41.4,40.6,30.17,SSW,204,1.0,1.0,97,0.00,,---,0.00,VWS V14.01,2013-03-30 10:49:00,
2013-03-30 06:50:00,42.7,41.6,30.18,West,269,0.0,1.0,96,0.00,,---,0.00,VWS V14.01,2013-03-30 10:50:00,
2013-03-30 06:54:00,41.2,40.2,30.17,SSW,204,0.0,0.0,96,0.00,,---,0.00,VWS V14.01,2013-03-30 10:54:00,
2013-03-30 06:55:00,42.7,41.6,30.18,NW,307,0.0,4.0,96,0.00,,---,0.00,VWS V14.01,2013-03-30 10:55:00,
2013-03-30 06:59:00,41.3,40.5,30.17,WSW,243,0.0,2.0,97,0.00,,---,0.00,VWS V14.01,2013-03-30 10:59:00,
2013-03-30 07:00:00,42.8,41.7,30.17,WSW,245,2.0,3.0,96,0.00,,---,0.00,VWS V14.01,2013-03-30 11:00:00,
2013-03-30 07:04:00,41.4,40.6,30.17,SW,226,2.0,2.0,97,0.00,,---,0.00,VWS V14.01,2013-03-30 11:04:00,
2013-03-30 07:05:00,42.9,41.8,30.17,WNW,291,1.0,3.0,96,0.00,,---,0.00,VWS V14.01,2013-03-30 11:05:00,
2013-03-30 07:09:00,41.5,40.7,30.17,SW,235,0.0,1.0,97,0.00,,---,0.00,VWS V14.01,2013-03-30 11:09:00,
2013-03-30 07:10:00,42.9,41.8,30.17,NW,319,0.0,1.0,96,0.00,,---,0.00,VWS V14.01,2013-03-30 11:10:00,
2013-03-30 07:14:00,41.4,40.6,30.17,WSW,256,0.0,3.0,97,0.00,,---,0.00,VWS V14.01,2013-03-30 11:14:00,
2013-03-30 07:15:00,42.8,41.7,30.17,NW,318,0.0,2.0,96,0.00,,---,0.00,VWS V14.01,2013-03-30 11:15:00,
2013-03-30 07:19:00,41.7,40.9,30.18,WNW,294,0.0,4.0,97,0.00,,---,0.00,VWS V14.01,2013-03-30 11:19:00,
2013-03-30 07:20:00,42.8,41.7,30.17,SW,225,0.0,2.0,96,0.00,,---,0.00,VWS V14.01,2013-03-30 11:20:00,
2013-03-30 07:24:00,41.8,41.0,30.17,West,259,2.0,5.0,97,0.00,,---,0.00,VWS V14.01,2013-03-30 11:24:00,
2013-03-30 07:25:00,42.7,41.6,30.17,SW,225,0.0,2.0,96,0.00,,---,0.00,VWS V14.01,2013-03-30 11:25:00,
2013-03-30 07:29:00,41.9,41.1,30.18,WSW,257,0.0,4.0,97,0.00,,---,0.00,VWS V14.01,2013-03-30 11:29:00,
2013-03-30 07:30:00,42.6,41.5,30.17,WNW,291,0.0,1.0,96,0.00,,---,0.00,VWS V14.01,2013-03-30 11:30:00,
2013-03-30 07:34:00,41.9,41.1,30.18,SW,231,4.0,5.0,97,0.00,,---,0.00,VWS V14.01,2013-03-30 11:34:00,
2013-03-30 07:35:00,42.5,41.4,30.17,WNW,291,0.0,1.0,96,0.00,,---,0.00,VWS V14.01,2013-03-30 11:35:00,
2013-03-30 07:39:00,42.0,41.2,30.18,West,281,1.0,5.0,97,0.00,,---,0.00,VWS V14.01,2013-03-30 11:39:00,
2013-03-30 07:40:00,42.3,41.2,30.16,WNW,291,0.0,1.0,96,0.00,,---,0.00,VWS V14.01,2013-03-30 11:40:00,
2013-03-30 07:44:00,42.0,41.2,30.18,West,262,0.0,6.0,97,0.00,,---,0.00,VWS V14.01,2013-03-30 11:44:00,
2013-03-30 07:45:00,42.3,41.2,30.16,WNW,290,0.0,1.0,96,0.00,,---,0.00,VWS V14.01,2013-03-30 11:45:00,
2013-03-30 07:49:00,42.1,41.3,30.18,South,181,0.0,4.0,97,0.00,,---,0.00,VWS V14.01,2013-03-30 11:49:00,
2013-03-30 07:50:00,42.3,41.2,30.16,WNW,290,1.0,1.0,96,0.00,,---,0.00,VWS V14.01,2013-03-30 11:50:00,
2013-03-30 07:54:00,42.2,41.4,30.18,WSW,242,0.0,4.0,97,0.00,,---,0.00,VWS V14.01,2013-03-30 11:54:00,
2013-03-30 07:55:00,42.3,41.2,30.16,WNW,293,1.0,2.0,96,0.00,,---,0.00,VWS V14.01,2013-03-30 11:55:00,
2013-03-30 07:59:00,42.2,41.4,30.18,West,275,2.0,4.0,97,0.00,,---,0.00,VWS V14.01,2013-03-30 11:59:00,
2013-03-30 08:00:00,42.3,41.2,30.16,WNW,293,0.0,1.0,96,0.00,,---,0.00,VWS V14.01,2013-03-30 12:00:00,
2013-03-30 08:04:00,42.3,41.5,30.19,SW,224,0.0,5.0,97,0.00,,---,0.00,VWS V14.01,2013-03-30 12:04:00,
2013-03-30 08:05:00,42.3,41.2,30.17,WNW,293,1.0,2.0,96,0.00,,---,0.00,VWS V14.01,2013-03-30 12:05:00,
2013-03-30 08:09:00,42.4,41.6,30.19,WNW,290,1.0,2.0,97,0.00,,---,0.00,VWS V14.01,2013-03-30 12:09:00,
2013-03-30 08:10:00,42.3,41.2,30.17,WNW,293,1.0,1.0,96,0.00,,---,0.00,VWS V14.01,2013-03-30 12:10:00,
2013-03-30 08:14:00,42.4,41.6,30.19,SSW,196,0.0,5.0,97,0.00,,---,0.00,VWS V14.01,2013-03-30 12:14:00,
2013-03-30 08:15:00,42.2,41.1,30.17,West,280,1.0,2.0,96,0.00,,---,0.00,VWS V14.01,2013-03-30 12:15:00,
2013-03-30 08:19:00,42.4,41.6,30.19,WSW,254,3.0,4.0,97,0.00,,---,0.00,VWS V14.01,2013-03-30 12:19:00,
2013-03-30 08:20:00,41.9,40.8,30.17,West,280,1.0,1.0,96,0.00,,---,0.00,VWS V14.01,2013-03-30 12:20:00,
2013-03-30 08:24:00,42.5,41.7,30.19,WSW,255,1.0,5.0,97,0.00,,---,0.00,VWS V14.01,2013-03-30 12:24:00,
2013-03-30 08:25:00,41.8,40.8,30.17,West,276,1.0,2.0,96,0.00,,---,0.00,VWS V14.01,2013-03-30 12:25:00,
2013-03-30 08:29:00,42.5,41.7,30.19,WSW,240,0.0,5.0,97,0.00,,---,0.00,VWS V14.01,2013-03-30 12:29:00,
2013-03-30 08:30:00,41.7,40.7,30.17,WSW,252,0.0,3.0,96,0.00,,---,0.00,VWS V14.01,2013-03-30 12:30:00,
2013-03-30 08:34:00,42.6,41.8,30.19,West,274,1.0,4.0,97,0.00,,---,0.00,VWS V14.01,2013-03-30 12:34:00,
2013-03-30 08:35:00,41.5,40.5,30.17,NNW,335,0.0,1.0,96,0.00,,---,0.00,VWS V14.01,2013-03-30 12:35:00,
2013-03-30 08:39:00,42.6,41.8,30.19,SSW,203,4.0,6.0,97,0.00,,---,0.00,VWS V14.01,2013-03-30 12:39:00,
2013-03-30 08:40:00,41.5,40.7,30.17,WNW,283,1.0,2.0,97,0.00,,---,0.00,VWS V14.01,2013-03-30 12:40:00,
2013-03-30 08:44:00,42.6,41.8,30.19,WSW,252,1.0,4.0,97,0.00,,---,0.00,VWS V14.01,2013-03-30 12:44:00,
2013-03-30 08:45:00,41.5,40.7,30.17,WNW,283,0.0,2.0,97,0.00,,---,0.00,VWS V14.01,2013-03-30 12:45:00,
2013-03-30 08:49:00,42.7,41.9,30.20,West,281,2.0,5.0,97,0.00,,---,0.00,VWS V14.01,2013-03-30 12:49:00,
2013-03-30 08:50:00,41.4,40.6,30.17,SSW,204,0.0,1.0,97,0.00,,---,0.00,VWS V14.01,2013-03-30 12:50:00,
2013-03-30 08:54:00,42.7,41.9,30.20,West,264,1.0,3.0,97,0.00,,---,0.00,VWS V14.01,2013-03-30 12:54:00,
2013-03-30 08:55:00,41.3,40.2,30.17,SSW,204,0.0,0.0,96,0.00,,---,0.00,VWS V14.01,2013-03-30 12:55:00,
2013-03-30 08:59:00,42.7,41.9,30.20,SSE,160,1.0,6.0,97,0.00,,---,0.00,VWS V14.01,2013-03-30 12:59:00,
2013-03-30 09:00:00,41.3,40.5,30.17,WSW,243,0.0,2.0,97,0.00,,---,0.00,VWS V14.01,2013-03-30 13:00:00,
2013-03-30 09:05:00,42.7,41.9,30.20,SSW,200,2.0,6.0,97,0.00,,---,0.00,VWS V14.01,2013-03-30 13:05:00,
2013-03-30 09:09:00,42.6,41.5,30.20,WSW,246,1.0,5.0,96,0.00,,---,0.00,VWS V14.01,2013-03-30 13:09:00,
2013-03-30 09:10:00,41.5,40.7,30.17,SW,235,0.0,1.0,97,0.00,,---,0.00,VWS V14.01,2013-03-30 13:10:00,
2013-03-30 09:14:00,42.7,41.9,30.20,SW,228,0.0,3.0,97,0.00,,---,0.00,VWS V14.01,2013-03-30 13:14:00,
2013-03-30 09:15:00,41.4,40.6,30.17,WSW,257,3.0,3.0,97,0.00,,---,0.00,VWS V14.01,2013-03-30 13:15:00,
2013-03-30 09:20:00,42.7,41.6,30.20,WSW,253,1.0,6.0,96,0.00,,---,0.00,VWS V14.01,2013-03-30 13:20:00,
2013-03-30 09:25:00,42.7,41.6,30.20,WSW,253,0.0,6.0,96,0.00,,---,0.00,VWS V14.01,2013-03-30 13:25:00,
2013-03-30 09:30:00,42.8,41.7,30.20,NW,309,1.0,5.0,96,0.00,,---,0.00,VWS V14.01,2013-03-30 13:30:00,
2013-03-30 09:35:00,42.9,41.8,30.20,WNW,287,1.0,3.0,96,0.00,,---,0.00,VWS V14.01,2013-03-30 13:35:00,
2013-03-30 09:40:00,43.1,42.0,30.20,WSW,243,2.0,3.0,96,0.00,,---,0.00,VWS V14.01,2013-03-30 13:40:00,
2013-03-30 09:45:00,43.2,42.1,30.20,West,264,2.0,4.0,96,0.00,,---,0.00,VWS V14.01,2013-03-30 13:45:00,
2013-03-30 09:50:00,43.3,42.0,30.20,WSW,249,3.0,4.0,95,0.00,,---,0.00,VWS V14.01,2013-03-30 13:50:00,
2013-03-30 09:55:00,43.3,42.0,30.20,SW,221,1.0,4.0,95,0.00,,---,0.00,VWS V14.01,2013-03-30 13:55:00,
2013-03-30 10:00:00,43.6,42.3,30.19,West,266,2.0,4.0,95,0.00,,---,0.00,VWS V14.01,2013-03-30 14:00:00,
2013-03-30 10:05:00,43.8,42.5,30.19,NW,311,4.0,5.0,95,0.00,,---,0.00,VWS V14.01,2013-03-30 14:05:00,
2013-03-30 10:10:00,43.9,42.6,30.19,West,262,2.0,3.0,95,0.00,,---,0.00,VWS V14.01,2013-03-30 14:10:00,
2013-03-30 10:15:00,43.9,42.3,30.19,WSW,257,2.0,6.0,94,0.00,,---,0.00,VWS V14.01,2013-03-30 14:15:00,
2013-03-30 10:20:00,43.9,42.6,30.19,SSW,208,1.0,4.0,95,0.00,,---,0.00,VWS V14.01,2013-03-30 14:20:00,
2013-03-30 10:25:00,44.0,42.4,30.19,WNW,282,1.0,3.0,94,0.00,,---,0.00,VWS V14.01,2013-03-30 14:25:00,
2013-03-30 10:30:00,44.0,42.4,30.18,WNW,283,3.0,4.0,94,0.00,,---,0.00,VWS V14.01,2013-03-30 14:30:00,
2013-03-30 10:35:00,44.3,42.7,30.18,WSW,253,2.0,4.0,94,0.00,,---,0.00,VWS V14.01,2013-03-30 14:35:00,
2013-03-30 10:40:00,44.5,43.2,30.18,SSW,204,2.0,2.0,95,0.00,,---,0.00,VWS V14.01,2013-03-30 14:40:00,
2013-03-30 10:45:00,44.7,43.1,30.18,NNW,345,0.0,3.0,94,0.00,,---,0.00,VWS V14.01,2013-03-30 14:45:00,
2013-03-30 10:50:00,44.8,42.9,30.19,WSW,253,4.0,5.0,93,0.00,,---,0.00,VWS V14.01,2013-03-30 14:50:00,
2013-03-30 10:55:00,44.7,42.8,30.19,NW,319,1.0,5.0,93,0.00,,---,0.00,VWS V14.01,2013-03-30 14:55:00,
2013-03-30 11:00:00,44.8,42.9,30.19,WSW,256,0.0,4.0,93,0.00,,---,0.00,VWS V14.01,2013-03-30 15:00:00,
2013-03-30 11:05:00,45.0,43.1,30.19,NNW,340,1.0,3.0,93,0.00,,---,0.00,VWS V14.01,2013-03-30 15:05:00,
2013-03-30 11:10:00,45.1,42.9,30.19,West,260,3.0,4.0,92,0.00,,---,0.00,VWS V14.01,2013-03-30 15:10:00,
2013-03-30 11:15:00,45.2,43.0,30.18,West,275,1.0,3.0,92,0.00,,---,0.00,VWS V14.01,2013-03-30 15:15:00,
2013-03-30 11:20:00,45.3,43.1,30.18,WNW,290,1.0,4.0,92,0.00,,---,0.00,VWS V14.01,2013-03-30 15:20:00,
2013-03-30 11:25:00,45.6,43.4,30.19,WNW,282,2.0,4.0,92,0.00,,---,0.00,VWS V14.01,2013-03-30 15:25:00,
2013-03-30 11:30:00,45.7,43.8,30.19,West,271,1.0,4.0,93,0.00,,---,0.00,VWS V14.01,2013-03-30 15:30:00,
2013-03-30 11:35:00,45.7,43.5,30.19,WSW,256,1.0,3.0,92,0.00,,---,0.00,VWS V14.01,2013-03-30 15:35:00,
2013-03-30 11:40:00,45.9,43.7,30.18,NW,316,1.0,1.0,92,0.00,,---,0.00,VWS V14.01,2013-03-30 15:40:00,
2013-03-30 11:45:00,46.3,44.1,30.18,SW,214,2.0,3.0,92,0.00,,---,0.00,VWS V14.01,2013-03-30 15:45:00,
2013-03-30 11:50:00,46.6,44.4,30.18,NNE,31,0.0,5.0,92,0.00,,---,0.00,VWS V14.01,2013-03-30 15:50:00,
2013-03-30 11:55:00,47.1,44.3,30.18,SW,228,4.0,4.0,90,0.00,,---,0.00,VWS V14.01,2013-03-30 15:55:00,
2013-03-30 12:00:00,47.2,44.7,30.18,SE,139,1.0,4.0,91,0.00,,---,0.00,VWS V14.01,2013-03-30 16:00:00,
2013-03-30 12:05:00,47.4,44.3,30.18,WSW,242,2.0,3.0,89,0.00,,---,0.00,VWS V14.01,2013-03-30 16:05:00,
2013-03-30 12:10:00,47.6,44.5,30.18,WSW,246,0.0,0.0,89,0.00,,---,0.00,VWS V14.01,2013-03-30 16:10:00,
2013-03-30 12:15:00,48.0,44.6,30.18,West,275,1.0,5.0,88,0.00,,---,0.00,VWS V14.01,2013-03-30 16:15:00,
2013-03-30 12:20:00,48.2,44.5,30.18,SW,226,4.0,4.0,87,0.00,,---,0.00,VWS V14.01,2013-03-30 16:20:00,
2013-03-30 12:25:00,48.6,44.9,30.17,SW,232,1.0,4.0,87,0.00,,---,0.00,VWS V14.01,2013-03-30 16:25:00,
2013-03-30 12:30:00,49.2,45.2,30.17,ESE,104,2.0,2.0,86,0.00,,---,0.00,VWS V14.01,2013-03-30 16:30:00,
2013-03-30 12:35:00,50.0,46.0,30.17,NNW,334,1.0,5.0,86,0.00,,---,0.00,VWS V14.01,2013-03-30 16:35:00,
2013-03-30 12:40:00,50.3,45.7,30.17,WNW,301,2.0,5.0,84,0.00,,---,0.00,VWS V14.01,2013-03-30 16:40:00,
2013-03-30 12:45:00,50.6,45.6,30.17,South,187,1.0,4.0,83,0.00,,---,0.00,VWS V14.01,2013-03-30 16:45:00,
2013-03-30 12:50:00,50.7,45.7,30.17,ESE,118,1.0,4.0,83,0.00,,---,0.00,VWS V14.01,2013-03-30 16:50:00,
2013-03-30 12:55:00,51.7,45.7,30.16,SW,228,2.0,4.0,80,0.00,,---,0.00,VWS V14.01,2013-03-30 16:55:00,
2013-03-30 13:00:00,51.9,45.6,30.16,WNW,301,0.0,6.0,79,0.00,,---,0.00,VWS V14.01,2013-03-30 17:00:00,
2013-03-30 13:05:00,52.9,46.2,30.16,NNW,347,1.0,3.0,78,0.00,,---,0.00,VWS V14.01,2013-03-30 17:05:00,
2013-03-30 13:10:00,53.0,45.7,30.15,SE,135,3.0,4.0,76,0.00,,---,0.00,VWS V14.01,2013-03-30 17:10:00,
2013-03-30 13:15:00,52.8,45.1,30.15,East,90,3.0,4.0,75,0.00,,---,0.00,VWS V14.01,2013-03-30 17:15:00,
2013-03-30 13:20:00,53.9,46.5,30.15,West,259,1.0,4.0,76,0.00,,---,0.00,VWS V14.01,2013-03-30 17:20:00,
2013-03-30 13:25:00,54.9,45.7,30.14,WNW,285,1.0,1.0,71,0.00,,---,0.00,VWS V14.01,2013-03-30 17:25:00,
2013-03-30 13:30:00,55.3,46.1,30.14,NW,307,1.0,1.0,71,0.00,,---,0.00,VWS V14.01,2013-03-30 17:30:00,
2013-03-30 13:35:00,56.0,46.7,30.14,NW,311,4.0,4.0,71,0.00,,---,0.00,VWS V14.01,2013-03-30 17:35:00,
2013-03-30 13:40:00,56.0,45.2,30.14,NNE,15,0.0,0.0,67,0.00,,---,0.00,VWS V14.01,2013-03-30 17:40:00,
2013-03-30 13:45:00,57.0,45.8,30.13,NNW,327,0.0,1.0,66,0.00,,---,0.00,VWS V14.01,2013-03-30 17:45:00,
2013-03-30 13:50:00,57.1,45.0,30.13,NNW,327,1.0,1.0,64,0.00,,---,0.00,VWS V14.01,2013-03-30 17:50:00,
2013-03-30 13:55:00,58.0,45.9,30.12,NNW,346,1.0,1.0,64,0.00,,---,0.00,VWS V14.01,2013-03-30 17:55:00,
2013-03-30 14:00:00,59.0,45.6,30.12,NNE,20,2.0,2.0,61,0.00,,---,0.00,VWS V14.01,2013-03-30 18:00:00,
2013-03-30 14:05:00,58.6,44.8,30.12,NNW,347,4.0,6.0,60,0.00,,---,0.00,VWS V14.01,2013-03-30 18:05:00,
2013-03-30 14:10:00,58.4,44.6,30.12,East,82,5.0,5.0,60,0.00,,---,0.00,VWS V14.01,2013-03-30 18:10:00,
2013-03-30 14:15:00,58.3,45.3,30.12,NNW,340,3.0,5.0,62,0.00,,---,0.00,VWS V14.01,2013-03-30 18:15:00,
2013-03-30 14:20:00,58.6,44.3,30.11,NNW,346,1.0,2.0,59,0.00,,---,0.00,VWS V14.01,2013-03-30 18:20:00,
2013-03-30 14:25:00,58.8,45.0,30.11,NE,51,2.0,4.0,60,0.00,,---,0.00,VWS V14.01,2013-03-30 18:25:00,
2013-03-30 14:30:00,58.9,44.2,30.11,North,355,5.0,6.0,58,0.00,,---,0.00,VWS V14.01,2013-03-30 18:30:00,
2013-03-30 14:35:00,59.6,44.8,30.11,NNE,15,3.0,5.0,58,0.00,,---,0.00,VWS V14.01,2013-03-30 18:35:00,
2013-03-30 14:40:00,59.6,44.4,30.11,West,280,2.0,5.0,57,0.00,,---,0.00,VWS V14.01,2013-03-30 18:40:00,
2013-03-30 14:45:00,59.8,44.1,30.10,ENE,63,7.0,7.0,56,0.00,,---,0.00,VWS V14.01,2013-03-30 18:45:00,
2013-03-30 14:50:00,59.9,44.7,30.10,East,98,2.0,3.0,57,0.00,,---,0.00,VWS V14.01,2013-03-30 18:50:00,
2013-03-30 14:55:00,60.6,44.8,30.09,East,79,4.0,6.0,56,0.00,,---,0.00,VWS V14.01,2013-03-30 18:55:00,
2013-03-30 15:00:00,59.8,45.0,30.09,East,89,4.0,4.0,58,0.00,,---,0.00,VWS V14.01,2013-03-30 19:00:00,
2013-03-30 15:05:00,60.3,45.0,30.09,North,352,1.0,3.0,57,0.00,,---,0.00,VWS V14.01,2013-03-30 19:05:00,
2013-03-30 15:10:00,60.8,46.0,30.09,NE,48,3.0,5.0,58,0.00,,---,0.00,VWS V14.01,2013-03-30 19:10:00,
2013-03-30 15:15:00,52.8,45.1,30.15,East,90,3.0,4.0,75,0.00,,---,0.00,VWS V14.01,2013-03-30 19:15:00,
2013-03-30 15:16:00,61.0,45.2,30.08,East,84,5.0,6.0,56,0.00,,---,0.00,VWS V14.01,2013-03-30 19:16:00,
2013-03-30 15:20:00,53.9,46.5,30.15,West,259,1.0,4.0,76,0.00,,---,0.00,VWS V14.01,2013-03-30 19:20:00,
2013-03-30 15:21:00,60.8,46.0,30.08,ENE,63,2.0,2.0,58,0.00,,---,0.00,VWS V14.01,2013-03-30 19:21:00,
2013-03-30 15:25:00,54.9,45.7,30.15,NW,305,1.0,4.0,71,0.00,,---,0.00,VWS V14.01,2013-03-30 19:25:00,
2013-03-30 15:26:00,61.4,45.6,30.08,NE,38,3.0,6.0,56,0.00,,---,0.00,VWS V14.01,2013-03-30 19:26:00,
2013-03-30 15:30:00,55.3,46.1,30.14,NW,308,1.0,3.0,71,0.00,,---,0.00,VWS V14.01,2013-03-30 19:30:00,
2013-03-30 15:31:00,61.4,46.0,30.07,East,80,3.0,5.0,57,0.00,,---,0.00,VWS V14.01,2013-03-30 19:31:00,
2013-03-30 15:35:00,56.0,46.7,30.14,NW,322,3.0,5.0,71,0.00,,---,0.00,VWS V14.01,2013-03-30 19:35:00,
2013-03-30 15:36:00,61.3,45.5,30.07,East,95,3.0,5.0,56,0.00,,---,0.00,VWS V14.01,2013-03-30 19:36:00,
2013-03-30 15:40:00,56.0,45.2,30.14,NNE,15,0.0,5.0,67,0.00,,---,0.00,VWS V14.01,2013-03-30 19:40:00,
2013-03-30 15:41:00,61.4,45.6,30.07,NNW,345,0.0,3.0,56,0.00,,---,0.00,VWS V14.01,2013-03-30 19:41:00,
2013-03-30 15:45:00,57.0,45.8,30.13,NNW,328,1.0,4.0,66,0.00,,---,0.00,VWS V14.01,2013-03-30 19:45:00,
2013-03-30 15:46:00,62.0,46.1,30.07,NE,37,1.0,1.0,56,0.00,,---,0.00,VWS V14.01,2013-03-30 19:46:00,
2013-03-30 15:50:00,57.1,45.0,30.13,NNW,328,1.0,4.0,64,0.00,,---,0.00,VWS V14.01,2013-03-30 19:50:00,
2013-03-30 15:51:00,62.2,45.8,30.07,ENE,64,2.0,4.0,55,0.00,,---,0.00,VWS V14.01,2013-03-30 19:51:00,
2013-03-30 15:55:00,57.9,45.8,30.12,NNW,332,1.0,2.0,64,0.00,,---,0.00,VWS V14.01,2013-03-30 19:55:00,
2013-03-30 15:56:00,61.9,46.0,30.06,NE,42,1.0,3.0,56,0.00,,---,0.00,VWS V14.01,2013-03-30 19:56:00,
2013-03-30 16:00:00,59.0,45.6,30.12,NNE,15,1.0,3.0,61,0.00,,---,0.00,VWS V14.01,2013-03-30 20:00:00,
2013-03-30 16:01:00,62.0,45.7,30.06,West,281,1.0,1.0,55,0.00,,---,0.00,VWS V14.01,2013-03-30 20:01:00,
2013-03-30 16:05:00,58.7,44.9,30.12,NNW,348,5.0,6.0,60,0.00,,---,0.00,VWS V14.01,2013-03-30 20:05:00,
2013-03-30 16:06:00,62.1,45.8,30.06,NW,309,1.0,1.0,55,0.00,,---,0.00,VWS V14.01,2013-03-30 20:06:00,
2013-03-30 16:10:00,58.4,44.6,30.12,East,86,2.0,6.0,60,0.00,,---,0.00,VWS V14.01,2013-03-30 20:10:00,
2013-03-30 16:11:00,62.6,46.7,30.06,NNE,26,3.0,3.0,56,0.00,,---,0.00,VWS V14.01,2013-03-30 20:11:00,
2013-03-30 16:15:00,58.2,45.3,30.12,NNW,328,5.0,7.0,62,0.00,,---,0.00,VWS V14.01,2013-03-30 20:15:00,
2013-03-30 16:16:00,63.3,46.9,30.05,North,354,2.0,2.0,55,0.00,,---,0.00,VWS V14.01,2013-03-30 20:16:00,
2013-03-30 16:20:00,58.6,44.3,30.11,NNW,346,2.0,6.0,59,0.00,,---,0.00,VWS V14.01,2013-03-30 20:20:00,
2013-03-30 16:22:00,63.8,46.4,30.05,NNW,341,0.0,1.0,53,0.00,,---,0.00,VWS V14.01,2013-03-30 20:22:00,
2013-03-30 16:25:00,58.9,45.1,30.11,East,94,4.0,7.0,60,0.00,,---,0.00,VWS V14.01,2013-03-30 20:25:00,
2013-03-30 16:27:00,63.6,46.2,30.05,NW,314,2.0,3.0,53,0.00,,---,0.00,VWS V14.01,2013-03-30 20:27:00,
2013-03-30 16:30:00,58.9,44.2,30.11,North,5,4.0,6.0,58,0.00,,---,0.00,VWS V14.01,2013-03-30 20:30:00,
2013-03-30 16:32:00,62.9,45.5,30.05,NW,318,0.0,2.0,53,0.00,,---,0.00,VWS V14.01,2013-03-30 20:32:00,
2013-03-30 16:35:00,59.5,44.7,30.11,NNW,341,3.0,8.0,58,0.00,,---,0.00,VWS V14.01,2013-03-30 20:35:00,
2013-03-30 16:37:00,63.0,46.1,30.05,NW,304,0.0,2.0,54,0.00,,---,0.00,VWS V14.01,2013-03-30 20:37:00,
2013-03-30 16:40:00,59.6,44.4,30.11,NNW,348,5.0,8.0,57,0.00,,---,0.00,VWS V14.01,2013-03-30 20:40:00,
2013-03-30 16:42:00,63.1,46.7,30.04,NNW,332,1.0,1.0,55,0.00,,---,0.00,VWS V14.01,2013-03-30 20:42:00,
2013-03-30 16:45:00,59.9,44.2,30.10,NE,56,2.0,8.0,56,0.00,,---,0.00,VWS V14.01,2013-03-30 20:45:00,
2013-03-30 16:47:00,63.6,46.7,30.04,NNW,335,1.0,1.0,54,0.00,,---,0.00,VWS V14.01,2013-03-30 20:47:00,
2013-03-30 16:50:00,59.8,45.0,30.10,ESE,103,2.0,7.0,58,0.00,,---,0.00,VWS V14.01,2013-03-30 20:50:00,
2013-03-30 16:52:00,63.1,45.7,30.04,NW,325,0.0,1.0,53,0.00,,---,0.00,VWS V14.01,2013-03-30 20:52:00,
2013-03-30 16:55:00,60.5,45.7,30.10,East,98,4.0,5.0,58,0.00,,---,0.00,VWS V14.01,2013-03-30 20:55:00,
2013-03-30 16:57:00,63.0,46.1,30.04,NW,319,0.0,0.0,54,0.00,,---,0.00,VWS V14.01,2013-03-30 20:57:00,
2013-03-30 17:00:00,59.8,44.5,30.09,NNW,342,3.0,6.0,57,0.00,,---,0.00,VWS V14.01,2013-03-30 21:00:00,
2013-03-30 17:02:00,63.6,46.7,30.03,NW,319,0.0,0.0,54,0.00,,---,0.00,VWS V14.01,2013-03-30 21:02:00,
2013-03-30 17:05:00,60.2,44.9,30.09,NNE,20,3.0,7.0,57,0.00,,---,0.00,VWS V14.01,2013-03-30 21:05:00,
2013-03-30 17:07:00,63.9,46.5,30.03,NW,319,0.0,1.0,53,0.00,,---,0.00,VWS V14.01,2013-03-30 21:07:00,
2013-03-30 17:10:00,60.7,45.8,30.09,NE,56,1.0,8.0,58,0.00,,---,0.00,VWS V14.01,2013-03-30 21:10:00,
2013-03-30 17:12:00,63.2,45.8,30.03,NW,313,0.0,2.0,53,0.00,,---,0.00,VWS V14.01,2013-03-30 21:12:00,
2013-03-30 17:15:00,61.1,45.3,30.09,East,97,5.0,7.0,56,0.00,,---,0.00,VWS V14.01,2013-03-30 21:15:00,
2013-03-30 17:17:00,62.7,45.8,30.03,NW,313,0.0,1.0,54,0.00,,---,0.00,VWS V14.01,2013-03-30 21:17:00,
2013-03-30 17:20:00,60.6,46.2,30.08,ENE,61,1.0,6.0,59,0.00,,---,0.00,VWS V14.01,2013-03-30 21:20:00,
2013-03-30 17:22:00,62.7,46.3,30.03,NW,314,1.0,2.0,55,0.00,,---,0.00,VWS V14.01,2013-03-30 21:22:00,
2013-03-30 17:25:00,61.4,46.0,30.08,ENE,65,4.0,7.0,57,0.00,,---,0.00,VWS V14.01,2013-03-30 21:25:00,
2013-03-30 17:27:00,62.9,46.5,30.02,NW,313,0.0,0.0,55,0.00,,---,0.00,VWS V14.01,2013-03-30 21:27:00,
2013-03-30 17:30:00,61.4,45.6,30.07,ENE,72,5.0,7.0,56,0.00,,---,0.00,VWS V14.01,2013-03-30 21:30:00,
2013-03-30 17:32:00,63.2,46.8,30.02,NW,314,0.0,0.0,55,0.00,,---,0.00,VWS V14.01,2013-03-30 21:32:00,
2013-03-30 17:35:00,61.4,45.6,30.07,East,88,4.0,7.0,56,0.00,,---,0.00,VWS V14.01,2013-03-30 21:35:00,
2013-03-30 17:37:00,63.1,46.7,30.02,WNW,295,1.0,1.0,55,0.00,,---,0.00,VWS V14.01,2013-03-30 21:37:00,
2013-03-30 17:40:00,61.3,45.5,30.07,NNW,343,3.0,5.0,56,0.00,,---,0.00,VWS V14.01,2013-03-30 21:40:00,
2013-03-30 17:42:00,62.8,46.9,30.02,WNW,284,2.0,2.0,56,0.00,,---,0.00,VWS V14.01,2013-03-30 21:42:00,
2013-03-30 17:45:00,61.9,46.0,30.07,NE,37,1.0,3.0,56,0.00,,---,0.00,VWS V14.01,2013-03-30 21:45:00,
2013-03-30 17:47:00,62.7,46.8,30.02,WSW,243,1.0,2.0,56,0.00,,---,0.00,VWS V14.01,2013-03-30 21:47:00,
2013-03-30 17:50:00,62.3,45.5,30.07,ENE,65,4.0,6.0,54,0.00,,---,0.00,VWS V14.01,2013-03-30 21:50:00,
2013-03-30 17:52:00,62.9,46.5,30.02,WSW,243,1.0,2.0,55,0.00,,---,0.00,VWS V14.01,2013-03-30 21:52:00,
2013-03-30 17:55:00,61.8,46.0,30.06,ESE,105,3.0,5.0,56,0.00,,---,0.00,VWS V14.01,2013-03-30 21:55:00,
2013-03-30 17:57:00,63.0,46.6,30.02,WSW,245,0.0,2.0,55,0.00,,---,0.00,VWS V14.01,2013-03-30 21:57:00,
2013-03-30 18:00:00,62.0,45.7,30.06,West,281,1.0,4.0,55,0.00,,---,0.00,VWS V14.01,2013-03-30 22:00:00,
2013-03-30 18:02:00,63.0,46.6,30.02,WSW,245,0.0,2.0,55,0.00,,---,0.00,VWS V14.01,2013-03-30 22:02:00,
2013-03-30 18:05:00,62.1,45.8,30.06,NW,308,0.0,2.0,55,0.00,,---,0.00,VWS V14.01,2013-03-30 22:05:00,
2013-03-30 18:07:00,63.0,46.6,30.02,WSW,245,0.0,1.0,55,0.00,,---,0.00,VWS V14.01,2013-03-30 22:07:00,
2013-03-30 18:10:00,62.3,46.0,30.06,NW,321,0.0,3.0,55,0.00,,---,0.00,VWS V14.01,2013-03-30 22:10:00,
2013-03-30 18:12:00,63.2,47.3,30.02,WSW,245,0.0,0.0,56,0.00,,---,0.00,VWS V14.01,2013-03-30 22:12:00,
2013-03-30 18:15:00,63.1,46.2,30.05,North,351,0.0,3.0,54,0.00,,---,0.00,VWS V14.01,2013-03-30 22:15:00,
2013-03-30 18:17:00,63.1,47.2,30.02,WSW,245,0.0,0.0,56,0.00,,---,0.00,VWS V14.01,2013-03-30 22:17:00,
2013-03-30 18:20:00,63.7,46.3,30.05,NNW,341,0.0,3.0,53,0.00,,---,0.00,VWS V14.01,2013-03-30 22:20:00,
2013-03-30 18:22:00,62.8,47.4,30.02,WSW,245,0.0,0.0,57,0.00,,---,0.00,VWS V14.01,2013-03-30 22:22:00,
2013-03-30 18:25:00,63.7,45.8,30.05,NW,325,0.0,3.0,52,0.00,,---,0.00,VWS V14.01,2013-03-30 22:25:00,
2013-03-30 18:28:00,62.8,47.8,30.03,WSW,245,0.0,0.0,58,0.00,,---,0.00,VWS V14.01,2013-03-30 22:28:00,
2013-03-30 18:30:00,63.1,45.7,30.05,NW,316,0.0,3.0,53,0.00,,---,0.00,VWS V14.01,2013-03-30 22:30:00,
2013-03-30 18:33:00,62.5,48.0,30.03,NNE,12,1.0,1.0,59,0.00,,---,0.00,VWS V14.01,2013-03-30 22:33:00,
2013-03-30 18:35:00,62.9,46.0,30.05,North,6,1.0,2.0,54,0.00,,---,0.00,VWS V14.01,2013-03-30 22:35:00,
2013-03-30 18:38:00,61.4,47.4,30.03,NNE,19,2.0,3.0,60,0.00,,---,0.00,VWS V14.01,2013-03-30 22:38:00,
2013-03-30 18:40:00,63.0,46.1,30.05,NNW,333,1.0,2.0,54,0.00,,---,0.00,VWS V14.01,2013-03-30 22:40:00,
2013-03-30 18:43:00,60.9,47.4,30.03,ENE,64,2.0,3.0,61,0.00,,---,0.00,VWS V14.01,2013-03-30 22:43:00,
2013-03-30 18:45:00,63.4,47.0,30.04,NNE,15,1.0,1.0,55,0.00,,---,0.00,VWS V14.01,2013-03-30 22:45:00,
2013-03-30 18:48:00,60.7,47.2,30.04,NE,43,3.0,9.0,61,0.00,,---,0.00,VWS V14.01,2013-03-30 22:48:00,
2013-03-30 18:50:00,63.3,45.9,30.04,NW,324,1.0,2.0,53,0.00,,---,0.00,VWS V14.01,2013-03-30 22:50:00,
2013-03-30 18:53:00,60.1,48.3,30.04,ENE,66,3.0,8.0,65,0.00,,---,0.00,VWS V14.01,2013-03-30 22:53:00,
2013-03-30 18:55:00,62.9,46.5,30.04,NW,319,0.0,1.0,55,0.00,,---,0.00,VWS V14.01,2013-03-30 22:55:00,
2013-03-30 18:58:00,58.7,49.3,30.05,East,89,3.0,6.0,71,0.00,,---,0.00,VWS V14.01,2013-03-30 22:58:00,
2013-03-30 19:00:00,63.3,46.4,30.04,NW,319,0.0,0.0,54,0.00,,---,0.00,VWS V14.01,2013-03-30 23:00:00,
2013-03-30 19:03:00,57.4,49.9,30.05,East,80,1.0,6.0,76,0.00,,---,0.00,VWS V14.01,2013-03-30 23:03:00,
2013-03-30 19:05:00,63.9,47.0,30.04,NW,319,0.0,0.0,54,0.00,,---,0.00,VWS V14.01,2013-03-30 23:05:00,
2013-03-30 19:08:00,56.6,50.8,30.04,ENE,70,5.0,8.0,81,0.00,,---,0.00,VWS V14.01,2013-03-30 23:08:00,
2013-03-30 19:10:00,63.5,46.6,30.03,NW,319,0.0,1.0,54,0.00,,---,0.00,VWS V14.01,2013-03-30 23:10:00,
2013-03-30 19:13:00,55.8,51.0,30.04,NE,52,3.0,5.0,84,0.00,,---,0.00,VWS V14.01,2013-03-30 23:13:00,
2013-03-30 19:15:00,62.9,46.0,30.03,NW,313,1.0,2.0,54,0.00,,---,0.00,VWS V14.01,2013-03-30 23:15:00,
2013-03-30 19:18:00,55.3,51.2,30.04,East,86,2.0,5.0,86,0.00,,---,0.00,VWS V14.01,2013-03-30 23:18:00,
2013-03-30 19:20:00,62.7,46.8,30.03,NW,313,0.0,1.0,56,0.00,,---,0.00,VWS V14.01,2013-03-30 23:20:00,
2013-03-30 19:23:00,54.9,51.4,30.04,ENE,72,2.0,4.0,88,0.00,,---,0.00,VWS V14.01,2013-03-30 23:23:00,
2013-03-30 19:25:00,62.8,46.9,30.03,NW,313,0.0,2.0,56,0.00,,---,0.00,VWS V14.01,2013-03-30 23:25:00,
2013-03-30 19:28:00,54.7,51.8,30.04,NE,39,0.0,1.0,90,0.00,,---,0.00,VWS V14.01,2013-03-30 23:28:00,
2013-03-30 19:30:00,63.1,46.7,30.02,NW,314,0.0,0.0,55,0.00,,---,0.00,VWS V14.01,2013-03-30 23:30:00,
2013-03-30 19:33:00,54.6,52.0,30.03,NNE,23,1.0,1.0,91,0.00,,---,0.00,VWS V14.01,2013-03-30 23:33:00,
2013-03-30 19:35:00,63.4,46.5,30.02,NW,304,1.0,2.0,54,0.00,,---,0.00,VWS V14.01,2013-03-30 23:35:00,
2013-03-30 19:38:00,54.4,52.1,30.03,NNE,23,1.0,1.0,92,0.00,,---,0.00,VWS V14.01,2013-03-30 23:38:00,
2013-03-30 19:40:00,62.9,47.5,30.02,WNW,295,1.0,1.0,57,0.00,,---,0.00,VWS V14.01,2013-03-30 23:40:00,
2013-03-30 19:43:00,54.3,52.0,30.03,NNE,23,0.0,1.0,92,0.00,,---,0.00,VWS V14.01,2013-03-30 23:43:00,
2013-03-30 19:45:00,62.8,46.4,30.02,WSW,243,1.0,4.0,55,0.00,,---,0.00,VWS V14.01,2013-03-30 23:45:00,
2013-03-30 19:48:00,54.3,52.3,30.03,NNE,23,0.0,0.0,93,0.00,,---,0.00,VWS V14.01,2013-03-30 23:48:00,
2013-03-30 19:50:00,62.8,46.9,30.02,WSW,243,0.0,2.0,56,0.00,,---,0.00,VWS V14.01,2013-03-30 23:50:00,
2013-03-30 19:53:00,54.2,52.2,30.02,NNE,23,1.0,1.0,93,0.00,,---,0.00,VWS V14.01,2013-03-30 23:53:00,
2013-03-30 19:55:00,63.0,46.6,30.02,WSW,245,2.0,2.0,55,0.00,,---,0.00,VWS V14.01,2013-03-30 23:55:00,
2013-03-30 19:58:00,54.0,52.0,30.02,NNE,23,0.0,0.0,93,0.00,,---,0.00,VWS V14.01,2013-03-30 23:58:00,
2013-03-30 20:00:00,63.1,47.2,30.02,WSW,245,0.0,2.0,56,0.00,,---,0.00,VWS V14.01,2013-03-31 00:00:00,
2013-03-30 20:03:00,53.9,52.2,30.02,NNE,23,0.0,1.0,94,0.00,,---,0.00,VWS V14.01,2013-03-31 00:03:00,
2013-03-30 20:05:00,63.0,47.1,30.02,WSW,245,0.0,2.0,56,0.00,,---,0.00,VWS V14.01,2013-03-31 00:05:00,
2013-03-30 20:08:00,53.8,52.1,30.02,NNE,23,0.0,0.0,94,0.00,,---,0.00,VWS V14.01,2013-03-31 00:08:00,
2013-03-30 20:10:00,63.1,47.2,30.02,WSW,245,0.0,1.0,56,0.00,,---,0.00,VWS V14.01,2013-03-31 00:10:00,
2013-03-30 20:13:00,53.8,52.4,30.02,NE,52,0.0,2.0,95,0.00,,---,0.00,VWS V14.01,2013-03-31 00:13:00,
2013-03-30 20:15:00,63.2,47.3,30.02,WSW,245,0.0,0.0,56,0.00,,---,0.00,VWS V14.01,2013-03-31 00:15:00,
2013-03-30 20:18:00,53.8,52.4,30.01,NE,52,0.0,1.0,95,0.00,,---,0.00,VWS V14.01,2013-03-31 00:18:00,
2013-03-30 20:20:00,62.9,47.5,30.02,WSW,245,0.0,0.0,57,0.00,,---,0.00,VWS V14.01,2013-03-31 00:20:00,
2013-03-30 20:23:00,53.8,52.4,30.01,NE,52,0.0,0.0,95,0.00,,---,0.00,VWS V14.01,2013-03-31 00:23:00,
2013-03-30 20:25:00,62.7,47.7,30.02,WSW,245,0.0,0.0,58,0.00,,---,0.00,VWS V14.01,2013-03-31 00:25:00,
2013-03-30 20:28:00,53.7,52.3,30.01,NE,53,0.0,0.0,95,0.00,,---,0.00,VWS V14.01,2013-03-31 00:28:00,
2013-03-30 20:30:00,62.7,47.3,30.03,NNW,330,0.0,1.0,57,0.00,,---,0.00,VWS V14.01,2013-03-31 00:30:00,
2013-03-30 20:33:00,53.7,52.3,30.01,NNE,31,0.0,1.0,95,0.00,,---,0.00,VWS V14.01,2013-03-31 00:33:00,
2013-03-30 20:35:00,62.0,48.0,30.03,ENE,66,2.0,3.0,60,0.00,,---,0.00,VWS V14.01,2013-03-31 00:35:00,
2013-03-30 20:38:00,53.6,52.2,30.01,NNE,31,0.0,1.0,95,0.00,,---,0.00,VWS V14.01,2013-03-31 00:38:00,
2013-03-30 20:40:00,61.1,47.6,30.03,ENE,63,2.0,3.0,61,0.00,,---,0.00,VWS V14.01,2013-03-31 00:40:00,
2013-03-30 20:43:00,53.5,52.4,30.01,NNE,31,0.0,0.0,96,0.00,,---,0.00,VWS V14.01,2013-03-31 00:43:00,
2013-03-30 20:45:00,60.8,47.3,30.04,NE,56,9.0,9.0,61,0.00,,---,0.00,VWS V14.01,2013-03-31 00:45:00,
2013-03-30 20:48:00,53.4,52.3,30.00,NNE,31,0.0,0.0,96,0.00,,---,0.00,VWS V14.01,2013-03-31 00:48:00,
2013-03-30 20:50:00,60.6,48.0,30.04,NNW,330,2.0,9.0,63,0.00,,---,0.00,VWS V14.01,2013-03-31 00:50:00,
2013-03-30 20:53:00,53.4,52.3,30.00,NNE,31,0.0,0.0,96,0.00,,---,0.00,VWS V14.01,2013-03-31 00:53:00,
2013-03-30 20:55:00,59.5,48.9,30.04,East,89,2.0,8.0,68,0.00,,---,0.00,VWS V14.01,2013-03-31 00:55:00,
2013-03-30 20:58:00,53.4,52.3,30.00,NNE,32,0.0,0.0,96,0.00,,---,0.00,VWS V14.01,2013-03-31 00:58:00,
2013-03-30 21:00:00,58.1,49.9,30.04,East,91,6.0,6.0,74,0.00,,---,0.00,VWS V14.01,2013-03-31 01:00:00,
2013-03-30 21:03:00,53.3,52.2,30.00,NNE,32,0.0,0.0,96,0.00,,---,0.00,VWS V14.01,2013-03-31 01:03:00,
2013-03-30 21:05:00,57.0,50.2,30.05,NE,37,1.0,7.0,78,0.00,,---,0.00,VWS V14.01,2013-03-31 01:05:00,
2013-03-30 21:08:00,53.2,52.1,30.00,NNE,31,0.0,0.0,96,0.00,,---,0.00,VWS V14.01,2013-03-31 01:08:00,
2013-03-30 21:10:00,56.2,50.8,30.04,NNE,23,1.0,8.0,82,0.00,,---,0.00,VWS V14.01,2013-03-31 01:10:00,
2013-03-30 21:13:00,53.2,52.1,30.00,NNE,31,0.0,0.0,96,0.00,,---,0.00,VWS V14.01,2013-03-31 01:13:00,
2013-03-30 21:15:00,55.6,51.2,30.04,East,89,2.0,5.0,85,0.00,,---,0.00,VWS V14.01,2013-03-31 01:15:00,
2013-03-30 21:18:00,53.3,52.2,30.00,NNE,31,0.0,0.0,96,0.00,,---,0.00,VWS V14.01,2013-03-31 01:18:00,
2013-03-30 21:20:00,55.1,51.3,30.04,East,98,4.0,5.0,87,0.00,,---,0.00,VWS V14.01,2013-03-31 01:20:00,
2013-03-30 21:23:00,53.3,52.5,30.00,NNE,31,0.0,1.0,97,0.00,,---,0.00,VWS V14.01,2013-03-31 01:23:00,
2013-03-30 21:25:00,54.8,51.6,30.04,ENE,62,1.0,4.0,89,0.00,,---,0.00,VWS V14.01,2013-03-31 01:25:00,
2013-03-30 21:28:00,53.5,52.7,30.00,NNE,31,0.0,1.0,97,0.00,,---,0.00,VWS V14.01,2013-03-31 01:28:00,
2013-03-30 21:30:00,54.6,51.7,30.04,NNE,20,0.0,2.0,90,0.00,,---,0.00,VWS V14.01,2013-03-31 01:30:00,
2013-03-30 21:33:00,53.6,52.8,30.00,NNE,31,1.0,1.0,97,0.00,,---,0.00,VWS V14.01,2013-03-31 01:33:00,
2013-03-30 21:35:00,54.5,51.9,30.03,NNE,23,0.0,1.0,91,0.00,,---,0.00,VWS V14.01,2013-03-31 01:35:00,
2013-03-30 21:38:00,53.6,52.8,30.00,NNE,31,0.0,1.0,97,0.00,,---,0.00,VWS V14.01,2013-03-31 01:38:00,
2013-03-30 21:40:00,54.3,52.0,30.03,NNE,23,0.0,1.0,92,0.00,,---,0.00,VWS V14.01,2013-03-31 01:40:00,
2013-03-30 21:43:00,53.6,52.8,30.00,NNE,32,0.0,1.0,97,0.00,,---,0.00,VWS V14.01,2013-03-31 01:43:00,
2013-03-30 21:45:00,54.3,52.0,30.03,NNE,23,0.0,1.0,92,0.00,,---,0.00,VWS V14.01,2013-03-31 01:45:00,
2013-03-30 21:48:00,53.6,52.8,30.00,NNE,31,0.0,1.0,97,0.00,,---,0.00,VWS V14.01,2013-03-31 01:48:00,
2013-03-30 21:50:00,54.2,52.2,30.02,NNE,23,0.0,0.0,93,0.00,,---,0.00,VWS V14.01,2013-03-31 01:50:00,
2013-03-30 21:53:00,53.7,52.9,30.00,NNE,32,0.0,1.0,97,0.00,,---,0.00,VWS V14.01,2013-03-31 01:53:00,
2013-03-30 21:55:00,54.1,52.1,30.02,NNE,23,0.0,1.0,93,0.00,,---,0.00,VWS V14.01,2013-03-31 01:55:00,
2013-03-30 21:58:00,53.7,52.9,30.00,NNE,31,0.0,0.0,97,0.00,,---,0.00,VWS V14.01,2013-03-31 01:58:00,
2013-03-30 22:00:00,54.0,52.3,30.02,NNE,23,1.0,1.0,94,0.00,,---,0.00,VWS V14.01,2013-03-31 02:00:00,
2013-03-30 22:03:00,53.7,52.9,29.99,NNE,32,0.0,0.0,97,0.00,,---,0.00,VWS V14.01,2013-03-31 02:03:00,
2013-03-30 22:05:00,53.9,52.2,30.02,NNE,23,0.0,1.0,94,0.00,,---,0.00,VWS V14.01,2013-03-31 02:05:00,
2013-03-30 22:08:00,53.7,52.9,29.99,NNE,29,1.0,2.0,97,0.00,,---,0.00,VWS V14.01,2013-03-31 02:08:00,
2013-03-30 22:10:00,53.8,52.1,30.02,NNE,23,0.0,0.0,94,0.00,,---,0.00,VWS V14.01,2013-03-31 02:10:00,
2013-03-30 22:14:00,53.7,52.9,29.99,NNE,20,0.0,1.0,97,0.00,,---,0.00,VWS V14.01,2013-03-31 02:14:00,
2013-03-30 22:15:00,53.8,52.4,30.02,NE,53,0.0,2.0,95,0.00,,---,0.00,VWS V14.01,2013-03-31 02:15:00,
2013-03-30 22:19:00,53.7,52.9,29.99,NNE,20,0.0,1.0,97,0.00,,---,0.00,VWS V14.01,2013-03-31 02:19:00,
2013-03-30 22:20:00,53.8,52.4,30.01,NE,53,0.0,1.0,95,0.00,,---,0.00,VWS V14.01,2013-03-31 02:20:00,
2013-03-30 22:24:00,53.7,52.9,29.99,NNE,13,0.0,0.0,97,0.00,,---,0.00,VWS V14.01,2013-03-31 02:24:00,
2013-03-30 22:25:00,53.7,52.3,30.01,NE,53,0.0,0.0,95,0.00,,---,0.00,VWS V14.01,2013-03-31 02:25:00,
2013-03-30 22:29:00,53.7,52.9,29.99,North,358,0.0,2.0,97,0.00,,---,0.00,VWS V14.01,2013-03-31 02:29:00,
2013-03-30 22:30:00,53.7,52.3,30.01,NE,52,0.0,0.0,95,0.00,,---,0.00,VWS V14.01,2013-03-31 02:30:00,
2013-03-30 22:34:00,53.8,53.2,29.99,NNE,29,0.0,3.0,98,0.00,,---,0.00,VWS V14.01,2013-03-31 02:34:00,
2013-03-30 22:35:00,53.6,52.2,30.01,NNE,31,0.0,1.0,95,0.00,,---,0.00,VWS V14.01,2013-03-31 02:35:00,
2013-03-30 22:39:00,53.8,53.2,29.98,NNE,29,0.0,1.0,98,0.00,,---,0.00,VWS V14.01,2013-03-31 02:39:00,
2013-03-30 22:40:00,53.5,52.1,30.01,NNE,31,0.0,1.0,95,0.00,,---,0.00,VWS V14.01,2013-03-31 02:40:00,
2013-03-30 22:44:00,53.8,53.2,29.98,NNW,338,2.0,2.0,98,0.00,,---,0.00,VWS V14.01,2013-03-31 02:44:00,
2013-03-30 22:45:00,53.5,52.4,30.01,NNE,32,0.0,0.0,96,0.00,,---,0.00,VWS V14.01,2013-03-31 02:45:00,
2013-03-30 22:49:00,53.9,53.3,29.99,East,81,2.0,3.0,98,0.00,,---,0.00,VWS V14.01,2013-03-31 02:49:00,
2013-03-30 22:50:00,53.4,52.3,30.00,NNE,31,0.0,0.0,96,0.00,,---,0.00,VWS V14.01,2013-03-31 02:50:00,
2013-03-30 22:54:00,53.9,53.3,30.00,NNE,17,2.0,2.0,98,0.00,,---,0.00,VWS V14.01,2013-03-31 02:54:00,
2013-03-30 22:55:00,53.4,52.3,30.00,NNE,31,0.0,0.0,96,0.00,,---,0.00,VWS V14.01,2013-03-31 02:55:00,
2013-03-30 22:59:00,53.9,53.3,29.99,NW,314,1.0,4.0,98,0.00,,---,0.00,VWS V14.01,2013-03-31 02:59:00,
2013-03-30 23:00:00,53.3,52.2,30.00,NNE,31,0.0,0.0,96,0.00,,---,0.00,VWS V14.01,2013-03-31 03:00:00,
2013-03-30 23:04:00,54.0,53.5,29.98,NNW,346,1.0,2.0,98,0.00,,---,0.00,VWS V14.01,2013-03-31 03:04:00,
2013-03-30 23:05:00,53.7,52.9,30.00,NNE,31,0.0,1.0,97,0.00,,---,0.00,VWS V14.01,2013-03-31 03:05:00,
2013-03-30 23:09:00,54.0,53.5,29.98,NNW,335,0.0,1.0,98,0.00,,---,0.00,VWS V14.01,2013-03-31 03:09:00,
2013-03-30 23:10:00,53.2,52.1,30.00,NNE,32,0.0,0.0,96,0.00,,---,0.00,VWS V14.01,2013-03-31 03:10:00,
2013-03-30 23:14:00,54.0,53.5,29.98,NNE,12,1.0,1.0,98,0.00,,---,0.00,VWS V14.01,2013-03-31 03:14:00,
2013-03-30 23:15:00,53.2,52.1,30.00,NNE,32,0.0,0.0,96,0.00,,---,0.00,VWS V14.01,2013-03-31 03:15:00,
2013-03-30 23:19:00,54.0,53.5,29.98,NE,56,2.0,2.0,98,0.00,,---,0.00,VWS V14.01,2013-03-31 03:19:00,
2013-03-30 23:20:00,53.3,52.2,30.00,NNE,31,0.0,0.0,96,0.00,,---,0.00,VWS V14.01,2013-03-31 03:20:00,
2013-03-30 23:24:00,54.1,53.5,29.99,ESE,117,2.0,5.0,98,0.00,,---,0.00,VWS V14.01,2013-03-31 03:24:00,
2013-03-30 23:25:00,53.4,52.6,30.00,NNE,31,0.0,1.0,97,0.00,,---,0.00,VWS V14.01,2013-03-31 03:25:00,
2013-03-30 23:29:00,54.1,53.5,29.99,ENE,69,1.0,3.0,98,0.00,,---,0.00,VWS V14.01,2013-03-31 03:29:00,
2013-03-30 23:30:00,53.5,52.7,30.00,NNE,31,1.0,1.0,97,0.00,,---,0.00,VWS V14.01,2013-03-31 03:30:00,
2013-03-30 23:34:00,54.1,53.5,29.98,NE,44,1.0,1.0,98,0.00,,---,0.00,VWS V14.01,2013-03-31 03:34:00,
2013-03-30 23:35:00,53.6,52.8,30.00,NNE,31,0.0,1.0,97,0.00,,---,0.00,VWS V14.01,2013-03-31 03:35:00,
2013-03-30 23:39:00,54.1,53.5,29.98,ENE,70,1.0,2.0,98,0.00,,---,0.00,VWS V14.01,2013-03-31 03:39:00,
2013-03-30 23:40:00,53.6,52.8,30.00,NNE,32,0.0,1.0,97,0.00,,---,0.00,VWS V14.01,2013-03-31 03:40:00,
2013-03-30 23:44:00,54.1,53.5,29.98,NE,45,0.0,3.0,98,0.00,,---,0.00,VWS V14.01,2013-03-31 03:44:00,
2013-03-30 23:45:00,53.6,52.8,30.00,NNE,31,0.0,1.0,97,0.00,,---,0.00,VWS V14.01,2013-03-31 03:45:00,
2013-03-30 23:49:00,54.1,53.5,29.97,NNE,33,1.0,1.0,98,0.00,,---,0.00,VWS V14.01,2013-03-31 03:49:00,
2013-03-30 23:50:00,53.6,52.8,30.00,NNE,31,0.0,1.0,97,0.00,,---,0.00,VWS V14.01,2013-03-31 03:50:00,
2013-03-30 23:54:00,54.1,53.5,29.97,North,3,1.0,3.0,98,0.00,,---,0.00,VWS V14.01,2013-03-31 03:54:00,
2013-03-30 23:55:00,53.7,52.9,30.00,NNE,32,0.0,1.0,97,0.00,,---,0.00,VWS V14.01,2013-03-31 03:55:00,
2013-03-30 23:59:00,54.1,53.5,29.97,NNE,30,0.0,2.0,98,0.00,,---,0.00,VWS V14.01,2013-03-31 03:59:00,